Mc Grath, Alaska
Current Conditions -  °F | °C
As of 5:03 PM on Wednesday 17 Dec 2014 (Local Time) from PAMC Reporting Station
Overcast Overcast  
Wind Chill: 19°   Ceiling: 2000
Heat Index: 19°   Visibility: 10mi
Dew Point: 16°   Wind: 3mph
Humidity: 88%   Direction: 350°N
Pressure: 29.63"   Gusts: NA
Location:  63.1005°N, 155.153°W
Report Text: PAMC 180203Z AUTO 35003KT 10SM SCT004 OVC020 M07/M09 A2963 RMK AO2 T10721089 TSNO
Loading
Personal Weather Stations






























Interactive Weather Map New forecast layout! Learn more

10-Day Weather Forecast

Advertisements
Track Severe Weather on mobile